sensor_id;sensor_type;location;lat;lon;timestamp;P1;durP1;ratioP1;P2;durP2;ratioP2
15706;SDS011;7953;54.302;10.128;2023-11-18T00:02:17;10.93;;;9.43;;
15706;SDS011;7953;54.302;10.128;2023-11-18T00:04:44;11.00;;;9.23;;
15706;SDS011;7953;54.302;10.128;2023-11-18T00:07:11;10.97;;;9.03;;
15706;SDS011;7953;54.302;10.128;2023-11-18T00:09:38;11.40;;;9.60;;
15706;SDS011;7953;54.302;10.128;2023-11-18T00:12:06;12.23;;;9.30;;
15706;SDS011;7953;54.302;10.128;2023-11-18T00:14:34;11.60;;;9.47;;
15706;SDS011;7953;54.302;10.128;2023-11-18T00:17:02;13.57;;;10.37;;
15706;SDS011;7953;54.302;10.128;2023-11-18T00:19:29;11.13;;;9.17;;
15706;SDS011;7953;54.302;10.128;2023-11-18T00:21:56;12.70;;;10.17;;
15706;SDS011;7953;54.302;10.128;2023-11-18T00:24:23;13.57;;;10.40;;
15706;SDS011;7953;54.302;10.128;2023-11-18T00:26:50;13.33;;;9.50;;
15706;SDS011;7953;54.302;10.128;2023-11-18T00:29:18;13.27;;;10.13;;
15706;SDS011;7953;54.302;10.128;2023-11-18T00:31:45;13.30;;;10.57;;
15706;SDS011;7953;54.302;10.128;2023-11-18T00:34:12;11.63;;;9.70;;
15706;SDS011;7953;54.302;10.128;2023-11-18T00:36:39;12.77;;;10.37;;
15706;SDS011;7953;54.302;10.128;2023-11-18T00:39:06;11.37;;;10.17;;
15706;SDS011;7953;54.302;10.128;2023-11-18T00:41:33;12.23;;;10.37;;
15706;SDS011;7953;54.302;10.128;2023-11-18T00:44:00;14.67;;;10.13;;
15706;SDS011;7953;54.302;10.128;2023-11-18T00:46:29;15.90;;;11.70;;
15706;SDS011;7953;54.302;10.128;2023-11-18T00:48:56;12.93;;;10.90;;
15706;SDS011;7953;54.302;10.128;2023-11-18T00:51:23;13.33;;;10.70;;
15706;SDS011;7953;54.302;10.128;2023-11-18T00:53:50;13.90;;;10.63;;
15706;SDS011;7953;54.302;10.128;2023-11-18T00:56:19;13.17;;;10.70;;
15706;SDS011;7953;54.302;10.128;2023-11-18T00:58:46;11.33;;;9.87;;
15706;SDS011;7953;54.302;10.128;2023-11-18T01:01:13;13.53;;;10.83;;
15706;SDS011;7953;54.302;10.128;2023-11-18T01:03:44;12.90;;;10.93;;
15706;SDS011;7953;54.302;10.128;2023-11-18T01:06:11;14.00;;;10.27;;
15706;SDS011;7953;54.302;10.128;2023-11-18T01:08:38;11.47;;;9.57;;
15706;SDS011;7953;54.302;10.128;2023-11-18T01:11:05;13.73;;;10.73;;
15706;SDS011;7953;54.302;10.128;2023-11-18T01:13:32;12.90;;;9.77;;
15706;SDS011;7953;54.302;10.128;2023-11-18T01:15:59;12.57;;;10.50;;
15706;SDS011;7953;54.302;10.128;2023-11-18T01:18:27;12.47;;;10.57;;
15706;SDS011;7953;54.302;10.128;2023-11-18T01:20:55;12.57;;;10.40;;
15706;SDS011;7953;54.302;10.128;2023-11-18T01:23:23;12.70;;;10.63;;
15706;SDS011;7953;54.302;10.128;2023-11-18T01:25:50;10.87;;;9.77;;
15706;SDS011;7953;54.302;10.128;2023-11-18T01:28:17;13.07;;;9.90;;
15706;SDS011;7953;54.302;10.128;2023-11-18T01:30:44;12.50;;;9.33;;
15706;SDS011;7953;54.302;10.128;2023-11-18T01:33:11;10.10;;;8.27;;
15706;SDS011;7953;54.302;10.128;2023-11-18T01:35:39;11.77;;;9.00;;
15706;SDS011;7953;54.302;10.128;2023-11-18T01:38:09;10.57;;;9.03;;
15706;SDS011;7953;54.302;10.128;2023-11-18T01:40:37;10.83;;;9.07;;
15706;SDS011;7953;54.302;10.128;2023-11-18T01:43:04;12.07;;;9.70;;
15706;SDS011;7953;54.302;10.128;2023-11-18T01:45:36;10.80;;;8.67;;
15706;SDS011;7953;54.302;10.128;2023-11-18T01:48:03;10.87;;;9.13;;
15706;SDS011;7953;54.302;10.128;2023-11-18T01:50:31;12.87;;;10.20;;
15706;SDS011;7953;54.302;10.128;2023-11-18T01:52:58;13.97;;;8.80;;
15706;SDS011;7953;54.302;10.128;2023-11-18T01:55:27;12.23;;;9.57;;
15706;SDS011;7953;54.302;10.128;2023-11-18T01:57:54;11.33;;;9.63;;
15706;SDS011;7953;54.302;10.128;2023-11-18T02:00:24;11.07;;;9.60;;
15706;SDS011;7953;54.302;10.128;2023-11-18T02:02:51;12.17;;;9.47;;
15706;SDS011;7953;54.302;10.128;2023-11-18T02:05:18;10.93;;;8.77;;
15706;SDS011;7953;54.302;10.128;2023-11-18T02:07:47;13.37;;;10.00;;
15706;SDS011;7953;54.302;10.128;2023-11-18T02:10:13;13.07;;;9.77;;
15706;SDS011;7953;54.302;10.128;2023-11-18T02:12:44;12.53;;;9.03;;
15706;SDS011;7953;54.302;10.128;2023-11-18T02:15:20;14.43;;;10.40;;
15706;SDS011;7953;54.302;10.128;2023-11-18T02:17:49;10.70;;;8.77;;
15706;SDS011;7953;54.302;10.128;2023-11-18T02:20:18;13.57;;;10.17;;
15706;SDS011;7953;54.302;10.128;2023-11-18T02:22:46;12.23;;;9.50;;
15706;SDS011;7953;54.302;10.128;2023-11-18T02:25:15;14.23;;;10.57;;
15706;SDS011;7953;54.302;10.128;2023-11-18T02:27:44;14.70;;;10.13;;
15706;SDS011;7953;54.302;10.128;2023-11-18T02:30:11;12.70;;;9.73;;
15706;SDS011;7953;54.302;10.128;2023-11-18T02:32:43;14.10;;;10.13;;
15706;SDS011;7953;54.302;10.128;2023-11-18T02:35:15;19.90;;;9.23;;
15706;SDS011;7953;54.302;10.128;2023-11-18T02:37:50;22.73;;;10.20;;
15706;SDS011;7953;54.302;10.128;2023-11-18T02:40:20;18.70;;;8.27;;
15706;SDS011;7953;54.302;10.128;2023-11-18T02:42:56;29.83;;;9.50;;
15706;SDS011;7953;54.302;10.128;2023-11-18T02:45:25;10.90;;;7.93;;
15706;SDS011;7953;54.302;10.128;2023-11-18T02:47:54;10.77;;;8.50;;
15706;SDS011;7953;54.302;10.128;2023-11-18T02:50:22;11.10;;;8.40;;
15706;SDS011;7953;54.302;10.128;2023-11-18T02:52:49;10.73;;;7.47;;
15706;SDS011;7953;54.302;10.128;2023-11-18T02:55:16;17.30;;;7.73;;
15706;SDS011;7953;54.302;10.128;2023-11-18T02:57:43;48.37;;;10.13;;
15706;SDS011;7953;54.302;10.128;2023-11-18T03:00:14;10.17;;;7.27;;
15706;SDS011;7953;54.302;10.128;2023-11-18T03:02:47;40.87;;;9.27;;
15706;SDS011;7953;54.302;10.128;2023-11-18T03:05:15;10.53;;;8.03;;
15706;SDS011;7953;54.302;10.128;2023-11-18T03:07:42;38.63;;;9.77;;
15706;SDS011;7953;54.302;10.128;2023-11-18T03:10:12;15.13;;;7.90;;
15706;SDS011;7953;54.302;10.128;2023-11-18T03:12:45;31.07;;;8.83;;
15706;SDS011;7953;54.302;10.128;2023-11-18T03:15:14;10.73;;;7.73;;
15706;SDS011;7953;54.302;10.128;2023-11-18T03:20:24;11.77;;;8.60;;
15706;SDS011;7953;54.302;10.128;2023-11-18T03:22:51;10.10;;;7.60;;
15706;SDS011;7953;54.302;10.128;2023-11-18T03:25:18;13.07;;;7.97;;
15706;SDS011;7953;54.302;10.128;2023-11-18T03:27:47;10.23;;;7.93;;
15706;SDS011;7953;54.302;10.128;2023-11-18T03:30:15;13.17;;;7.90;;
15706;SDS011;7953;54.302;10.128;2023-11-18T03:32:43;15.00;;;7.73;;
15706;SDS011;7953;54.302;10.128;2023-11-18T03:35:10;10.20;;;7.50;;
15706;SDS011;7953;54.302;10.128;2023-11-18T03:37:36;13.53;;;7.80;;
15706;SDS011;7953;54.302;10.128;2023-11-18T03:40:06;9.90;;;7.63;;
15706;SDS011;7953;54.302;10.128;2023-11-18T03:42:34;18.80;;;8.80;;
15706;SDS011;7953;54.302;10.128;2023-11-18T03:45:02;15.03;;;8.00;;
15706;SDS011;7953;54.302;10.128;2023-11-18T03:47:31;12.40;;;7.33;;
15706;SDS011;7953;54.302;10.128;2023-11-18T03:49:59;17.80;;;8.40;;
15706;SDS011;7953;54.302;10.128;2023-11-18T03:52:26;16.77;;;9.10;;
15706;SDS011;7953;54.302;10.128;2023-11-18T03:54:54;23.30;;;7.70;;
15706;SDS011;7953;54.302;10.128;2023-11-18T03:57:21;17.37;;;7.90;;
15706;SDS011;7953;54.302;10.128;2023-11-18T03:59:48;15.20;;;7.50;;
15706;SDS011;7953;54.302;10.128;2023-11-18T04:02:15;23.87;;;8.30;;
15706;SDS011;7953;54.302;10.128;2023-11-18T04:04:44;9.37;;;7.63;;
15706;SDS011;7953;54.302;10.128;2023-11-18T04:07:11;11.20;;;8.27;;
15706;SDS011;7953;54.302;10.128;2023-11-18T04:09:37;16.87;;;8.63;;
15706;SDS011;7953;54.302;10.128;2023-11-18T04:12:06;18.27;;;8.13;;
15706;SDS011;7953;54.302;10.128;2023-11-18T04:14:34;18.57;;;7.67;;
15706;SDS011;7953;54.302;10.128;2023-11-18T04:17:01;8.80;;;7.50;;
15706;SDS011;7953;54.302;10.128;2023-11-18T04:19:28;11.77;;;8.23;;
15706;SDS011;7953;54.302;10.128;2023-11-18T04:21:56;11.13;;;7.73;;
15706;SDS011;7953;54.302;10.128;2023-11-18T04:24:23;10.40;;;7.87;;
15706;SDS011;7953;54.302;10.128;2023-11-18T04:26:50;9.80;;;7.10;;
15706;SDS011;7953;54.302;10.128;2023-11-18T04:29:17;13.03;;;7.40;;
15706;SDS011;7953;54.302;10.128;2023-11-18T04:31:44;11.00;;;8.67;;
15706;SDS011;7953;54.302;10.128;2023-11-18T04:34:11;8.57;;;6.57;;
15706;SDS011;7953;54.302;10.128;2023-11-18T04:36:40;10.10;;;7.90;;
15706;SDS011;7953;54.302;10.128;2023-11-18T04:39:08;10.83;;;7.70;;
15706;SDS011;7953;54.302;10.128;2023-11-18T04:41:36;12.33;;;8.10;;
15706;SDS011;7953;54.302;10.128;2023-11-18T04:44:04;10.13;;;7.57;;
15706;SDS011;7953;54.302;10.128;2023-11-18T04:46:31;10.83;;;7.77;;
15706;SDS011;7953;54.302;10.128;2023-11-18T04:48:58;8.77;;;7.07;;
15706;SDS011;7953;54.302;10.128;2023-11-18T04:51:27;10.20;;;7.07;;
15706;SDS011;7953;54.302;10.128;2023-11-18T04:53:53;8.93;;;7.17;;
15706;SDS011;7953;54.302;10.128;2023-11-18T04:56:22;9.37;;;6.80;;
15706;SDS011;7953;54.302;10.128;2023-11-18T04:58:49;11.37;;;7.93;;
15706;SDS011;7953;54.302;10.128;2023-11-18T05:01:15;11.17;;;7.53;;
15706;SDS011;7953;54.302;10.128;2023-11-18T05:03:43;11.47;;;8.27;;
15706;SDS011;7953;54.302;10.128;2023-11-18T05:06:10;11.03;;;7.47;;
15706;SDS011;7953;54.302;10.128;2023-11-18T05:08:37;11.07;;;7.93;;
15706;SDS011;7953;54.302;10.128;2023-11-18T05:11:03;17.63;;;7.33;;
15706;SDS011;7953;54.302;10.128;2023-11-18T05:13:32;25.90;;;8.77;;
15706;SDS011;7953;54.302;10.128;2023-11-18T05:15:59;11.73;;;7.73;;
15706;SDS011;7953;54.302;10.128;2023-11-18T05:18:26;11.03;;;7.87;;
15706;SDS011;7953;54.302;10.128;2023-11-18T05:20:54;11.90;;;9.03;;
15706;SDS011;7953;54.302;10.128;2023-11-18T05:23:22;10.87;;;8.07;;
15706;SDS011;7953;54.302;10.128;2023-11-18T05:25:49;9.70;;;7.70;;
15706;SDS011;7953;54.302;10.128;2023-11-18T05:28:16;10.97;;;7.93;;
15706;SDS011;7953;54.302;10.128;2023-11-18T05:30:44;9.93;;;7.27;;
15706;SDS011;7953;54.302;10.128;2023-11-18T05:33:11;13.23;;;8.97;;
15706;SDS011;7953;54.302;10.128;2023-11-18T05:35:42;15.73;;;7.73;;
15706;SDS011;7953;54.302;10.128;2023-11-18T05:38:14;13.40;;;9.03;;
15706;SDS011;7953;54.302;10.128;2023-11-18T05:40:44;25.13;;;8.63;;
15706;SDS011;7953;54.302;10.128;2023-11-18T05:43:20;19.40;;;9.27;;
15706;SDS011;7953;54.302;10.128;2023-11-18T05:45:50;14.90;;;8.37;;
15706;SDS011;7953;54.302;10.128;2023-11-18T05:48:38;22.17;;;9.80;;
15706;SDS011;7953;54.302;10.128;2023-11-18T05:51:05;18.50;;;8.63;;
15706;SDS011;7953;54.302;10.128;2023-11-18T05:53:32;15.07;;;8.43;;
15706;SDS011;7953;54.302;10.128;2023-11-18T05:55:59;13.03;;;7.80;;
15706;SDS011;7953;54.302;10.128;2023-11-18T05:58:26;10.40;;;7.87;;
15706;SDS011;7953;54.302;10.128;2023-11-18T06:00:54;13.00;;;8.63;;
15706;SDS011;7953;54.302;10.128;2023-11-18T06:03:22;9.60;;;7.70;;
15706;SDS011;7953;54.302;10.128;2023-11-18T06:05:49;14.37;;;10.07;;
15706;SDS011;7953;54.302;10.128;2023-11-18T06:08:16;11.47;;;8.43;;
15706;SDS011;7953;54.302;10.128;2023-11-18T06:10:43;12.87;;;9.23;;
15706;SDS011;7953;54.302;10.128;2023-11-18T06:13:10;11.87;;;8.77;;
15706;SDS011;7953;54.302;10.128;2023-11-18T06:15:39;11.90;;;8.53;;
15706;SDS011;7953;54.302;10.128;2023-11-18T06:18:07;16.00;;;9.00;;
15706;SDS011;7953;54.302;10.128;2023-11-18T06:20:34;10.07;;;8.03;;
15706;SDS011;7953;54.302;10.128;2023-11-18T06:23:03;10.87;;;8.07;;
15706;SDS011;7953;54.302;10.128;2023-11-18T06:25:31;11.17;;;8.17;;
15706;SDS011;7953;54.302;10.128;2023-11-18T06:28:00;14.27;;;10.10;;
15706;SDS011;7953;54.302;10.128;2023-11-18T06:30:27;13.53;;;10.63;;
15706;SDS011;7953;54.302;10.128;2023-11-18T06:32:54;24.30;;;15.50;;
15706;SDS011;7953;54.302;10.128;2023-11-18T06:35:22;15.13;;;10.23;;
15706;SDS011;7953;54.302;10.128;2023-11-18T06:37:50;11.70;;;8.30;;
15706;SDS011;7953;54.302;10.128;2023-11-18T06:40:17;12.23;;;8.93;;
15706;SDS011;7953;54.302;10.128;2023-11-18T06:42:47;12.57;;;8.80;;
15706;SDS011;7953;54.302;10.128;2023-11-18T06:45:13;9.90;;;7.43;;
15706;SDS011;7953;54.302;10.128;2023-11-18T06:47:41;13.67;;;7.97;;
15706;SDS011;7953;54.302;10.128;2023-11-18T06:50:09;12.77;;;8.93;;
15706;SDS011;7953;54.302;10.128;2023-11-18T06:52:40;12.73;;;8.70;;
15706;SDS011;7953;54.302;10.128;2023-11-18T06:55:08;11.93;;;8.70;;
15706;SDS011;7953;54.302;10.128;2023-11-18T06:57:36;11.80;;;8.83;;
15706;SDS011;7953;54.302;10.128;2023-11-18T07:00:03;14.50;;;10.77;;
15706;SDS011;7953;54.302;10.128;2023-11-18T07:02:33;14.07;;;10.30;;
15706;SDS011;7953;54.302;10.128;2023-11-18T07:05:00;13.03;;;9.17;;
15706;SDS011;7953;54.302;10.128;2023-11-18T07:07:28;12.83;;;9.13;;
15706;SDS011;7953;54.302;10.128;2023-11-18T07:09:56;15.40;;;8.80;;
15706;SDS011;7953;54.302;10.128;2023-11-18T07:12:23;13.13;;;8.57;;
15706;SDS011;7953;54.302;10.128;2023-11-18T07:14:50;16.73;;;8.50;;
15706;SDS011;7953;54.302;10.128;2023-11-18T07:17:19;15.60;;;9.37;;
15706;SDS011;7953;54.302;10.128;2023-11-18T07:19:46;16.60;;;9.77;;
15706;SDS011;7953;54.302;10.128;2023-11-18T07:22:12;22.90;;;10.00;;
15706;SDS011;7953;54.302;10.128;2023-11-18T07:24:39;36.37;;;10.47;;
15706;SDS011;7953;54.302;10.128;2023-11-18T07:27:09;25.07;;;9.23;;
15706;SDS011;7953;54.302;10.128;2023-11-18T07:29:37;17.57;;;9.40;;
15706;SDS011;7953;54.302;10.128;2023-11-18T07:32:04;19.83;;;9.60;;
15706;SDS011;7953;54.302;10.128;2023-11-18T07:34:31;11.57;;;8.27;;
15706;SDS011;7953;54.302;10.128;2023-11-18T07:36:58;10.63;;;7.70;;
15706;SDS011;7953;54.302;10.128;2023-11-18T07:39:27;11.80;;;8.20;;
15706;SDS011;7953;54.302;10.128;2023-11-18T07:42:10;9.97;;;7.77;;
15706;SDS011;7953;54.302;10.128;2023-11-18T07:44:38;9.67;;;7.97;;
15706;SDS011;7953;54.302;10.128;2023-11-18T07:47:05;11.37;;;8.23;;
15706;SDS011;7953;54.302;10.128;2023-11-18T07:49:33;11.50;;;8.23;;
15706;SDS011;7953;54.302;10.128;2023-11-18T07:52:00;11.83;;;8.37;;
15706;SDS011;7953;54.302;10.128;2023-11-18T07:54:27;11.00;;;8.00;;
15706;SDS011;7953;54.302;10.128;2023-11-18T07:56:54;15.10;;;8.40;;
15706;SDS011;7953;54.302;10.128;2023-11-18T07:59:23;11.93;;;7.10;;
15706;SDS011;7953;54.302;10.128;2023-11-18T08:01:51;10.60;;;6.80;;
15706;SDS011;7953;54.302;10.128;2023-11-18T08:04:19;13.37;;;7.07;;
15706;SDS011;7953;54.302;10.128;2023-11-18T08:06:47;8.67;;;6.73;;
15706;SDS011;7953;54.302;10.128;2023-11-18T08:09:14;11.67;;;6.87;;
15706;SDS011;7953;54.302;10.128;2023-11-18T08:11:47;14.40;;;7.60;;
15706;SDS011;7953;54.302;10.128;2023-11-18T08:14:14;9.77;;;6.97;;
15706;SDS011;7953;54.302;10.128;2023-11-18T08:16:43;14.23;;;8.07;;
15706;SDS011;7953;54.302;10.128;2023-11-18T08:19:10;10.33;;;7.23;;
15706;SDS011;7953;54.302;10.128;2023-11-18T08:21:37;11.10;;;8.03;;
15706;SDS011;7953;54.302;10.128;2023-11-18T08:24:04;10.23;;;7.27;;
15706;SDS011;7953;54.302;10.128;2023-11-18T08:26:33;15.93;;;11.57;;
15706;SDS011;7953;54.302;10.128;2023-11-18T08:29:00;12.73;;;9.70;;
15706;SDS011;7953;54.302;10.128;2023-11-18T08:31:27;10.80;;;7.73;;
15706;SDS011;7953;54.302;10.128;2023-11-18T08:33:56;9.70;;;7.47;;
15706;SDS011;7953;54.302;10.128;2023-11-18T08:36:23;10.73;;;7.90;;
15706;SDS011;7953;54.302;10.128;2023-11-18T08:38:51;9.57;;;7.50;;
15706;SDS011;7953;54.302;10.128;2023-11-18T08:41:19;10.20;;;7.20;;
15706;SDS011;7953;54.302;10.128;2023-11-18T08:43:47;26.03;;;19.20;;
15706;SDS011;7953;54.302;10.128;2023-11-18T08:46:14;16.50;;;8.47;;
15706;SDS011;7953;54.302;10.128;2023-11-18T08:48:41;16.13;;;9.33;;
15706;SDS011;7953;54.302;10.128;2023-11-18T08:51:10;11.60;;;7.47;;
15706;SDS011;7953;54.302;10.128;2023-11-18T08:53:38;10.40;;;6.73;;
15706;SDS011;7953;54.302;10.128;2023-11-18T08:56:07;10.47;;;7.30;;
15706;SDS011;7953;54.302;10.128;2023-11-18T08:58:38;11.90;;;6.67;;
15706;SDS011;7953;54.302;10.128;2023-11-18T09:01:07;9.47;;;6.97;;
15706;SDS011;7953;54.302;10.128;2023-11-18T09:03:39;8.67;;;6.10;;
15706;SDS011;7953;54.302;10.128;2023-11-18T09:06:14;24.40;;;13.33;;
15706;SDS011;7953;54.302;10.128;2023-11-18T09:08:44;16.27;;;11.43;;
15706;SDS011;7953;54.302;10.128;2023-11-18T09:11:17;8.73;;;6.77;;
15706;SDS011;7953;54.302;10.128;2023-11-18T09:13:45;9.00;;;6.10;;
15706;SDS011;7953;54.302;10.128;2023-11-18T09:16:14;8.57;;;6.77;;
15706;SDS011;7953;54.302;10.128;2023-11-18T09:18:42;7.97;;;6.17;;
15706;SDS011;7953;54.302;10.128;2023-11-18T09:21:10;9.30;;;6.50;;
15706;SDS011;7953;54.302;10.128;2023-11-18T09:23:41;9.70;;;7.17;;
15706;SDS011;7953;54.302;10.128;2023-11-18T09:26:09;21.37;;;9.93;;
15706;SDS011;7953;54.302;10.128;2023-11-18T09:28:37;17.97;;;7.67;;
15706;SDS011;7953;54.302;10.128;2023-11-18T09:31:04;20.30;;;8.73;;
15706;SDS011;7953;54.302;10.128;2023-11-18T09:33:36;12.93;;;8.47;;
15706;SDS011;7953;54.302;10.128;2023-11-18T09:36:06;20.43;;;13.47;;
15706;SDS011;7953;54.302;10.128;2023-11-18T09:38:37;17.00;;;10.33;;
15706;SDS011;7953;54.302;10.128;2023-11-18T09:41:08;18.17;;;11.30;;
15706;SDS011;7953;54.302;10.128;2023-11-18T09:43:37;13.73;;;9.53;;
15706;SDS011;7953;54.302;10.128;2023-11-18T09:46:10;13.37;;;11.03;;
15706;SDS011;7953;54.302;10.128;2023-11-18T09:48:40;12.47;;;9.37;;
15706;SDS011;7953;54.302;10.128;2023-11-18T09:51:12;10.87;;;8.47;;
15706;SDS011;7953;54.302;10.128;2023-11-18T09:53:43;10.50;;;7.80;;
15706;SDS011;7953;54.302;10.128;2023-11-18T09:56:16;12.30;;;8.73;;
15706;SDS011;7953;54.302;10.128;2023-11-18T09:58:54;10.10;;;8.30;;
15706;SDS011;7953;54.302;10.128;2023-11-18T10:01:31;11.13;;;8.80;;
15706;SDS011;7953;54.302;10.128;2023-11-18T10:04:04;11.77;;;8.70;;
15706;SDS011;7953;54.302;10.128;2023-11-18T10:06:32;11.37;;;8.50;;
15706;SDS011;7953;54.302;10.128;2023-11-18T10:09:04;13.67;;;8.73;;
15706;SDS011;7953;54.302;10.128;2023-11-18T10:11:43;12.00;;;9.10;;
15706;SDS011;7953;54.302;10.128;2023-11-18T10:14:11;11.43;;;8.50;;
15706;SDS011;7953;54.302;10.128;2023-11-18T10:16:40;11.10;;;8.23;;
15706;SDS011;7953;54.302;10.128;2023-11-18T10:19:11;9.10;;;7.90;;
15706;SDS011;7953;54.302;10.128;2023-11-18T10:21:39;11.10;;;9.10;;
15706;SDS011;7953;54.302;10.128;2023-11-18T10:24:07;15.17;;;11.50;;
15706;SDS011;7953;54.302;10.128;2023-11-18T10:26:40;15.00;;;12.57;;
15706;SDS011;7953;54.302;10.128;2023-11-18T10:29:10;14.37;;;12.00;;
15706;SDS011;7953;54.302;10.128;2023-11-18T10:31:38;11.63;;;9.67;;
15706;SDS011;7953;54.302;10.128;2023-11-18T10:34:10;13.77;;;9.87;;
15706;SDS011;7953;54.302;10.128;2023-11-18T10:36:40;9.03;;;7.33;;
15706;SDS011;7953;54.302;10.128;2023-11-18T10:39:10;10.80;;;7.23;;
15706;SDS011;7953;54.302;10.128;2023-11-18T10:41:43;11.23;;;8.93;;
15706;SDS011;7953;54.302;10.128;2023-11-18T10:44:12;10.07;;;7.90;;
15706;SDS011;7953;54.302;10.128;2023-11-18T10:46:40;10.50;;;8.43;;
15706;SDS011;7953;54.302;10.128;2023-11-18T10:49:17;11.80;;;8.27;;
15706;SDS011;7953;54.302;10.128;2023-11-18T10:51:46;10.10;;;8.43;;
15706;SDS011;7953;54.302;10.128;2023-11-18T10:54:13;11.57;;;9.40;;
15706;SDS011;7953;54.302;10.128;2023-11-18T10:56:47;11.70;;;8.77;;
15706;SDS011;7953;54.302;10.128;2023-11-18T10:59:15;9.43;;;8.30;;
15706;SDS011;7953;54.302;10.128;2023-11-18T11:01:43;11.57;;;8.83;;
15706;SDS011;7953;54.302;10.128;2023-11-18T11:04:14;12.27;;;9.40;;
15706;SDS011;7953;54.302;10.128;2023-11-18T11:06:46;12.30;;;9.30;;
15706;SDS011;7953;54.302;10.128;2023-11-18T11:09:17;10.63;;;8.90;;
15706;SDS011;7953;54.302;10.128;2023-11-18T11:11:52;10.37;;;7.60;;
15706;SDS011;7953;54.302;10.128;2023-11-18T11:14:21;9.97;;;6.93;;
15706;SDS011;7953;54.302;10.128;2023-11-18T11:16:55;8.53;;;6.80;;
15706;SDS011;7953;54.302;10.128;2023-11-18T11:19:25;9.10;;;6.93;;
15706;SDS011;7953;54.302;10.128;2023-11-18T11:21:55;9.33;;;7.00;;
15706;SDS011;7953;54.302;10.128;2023-11-18T11:24:33;7.07;;;6.00;;
15706;SDS011;7953;54.302;10.128;2023-11-18T11:27:17;9.57;;;7.83;;
15706;SDS011;7953;54.302;10.128;2023-11-18T11:29:55;11.17;;;8.60;;
15706;SDS011;7953;54.302;10.128;2023-11-18T11:32:35;9.67;;;6.20;;
15706;SDS011;7953;54.302;10.128;2023-11-18T11:35:06;9.43;;;7.60;;
15706;SDS011;7953;54.302;10.128;2023-11-18T11:37:44;7.30;;;5.17;;
15706;SDS011;7953;54.302;10.128;2023-11-18T11:40:12;6.40;;;5.07;;
15706;SDS011;7953;54.302;10.128;2023-11-18T11:42:48;5.17;;;4.50;;
15706;SDS011;7953;54.302;10.128;2023-11-18T11:45:20;6.27;;;4.60;;
15706;SDS011;7953;54.302;10.128;2023-11-18T11:47:53;2.93;;;2.63;;
15706;SDS011;7953;54.302;10.128;2023-11-18T11:50:52;5.03;;;4.07;;
15706;SDS011;7953;54.302;10.128;2023-11-18T11:53:30;6.03;;;4.63;;
15706;SDS011;7953;54.302;10.128;2023-11-18T11:56:01;5.80;;;5.20;;
15706;SDS011;7953;54.302;10.128;2023-11-18T12:01:02;5.87;;;5.33;;
15706;SDS011;7953;54.302;10.128;2023-11-18T12:03:59;5.33;;;4.27;;
15706;SDS011;7953;54.302;10.128;2023-11-18T12:06:32;3.70;;;3.33;;
15706;SDS011;7953;54.302;10.128;2023-11-18T12:09:00;5.20;;;4.20;;
15706;SDS011;7953;54.302;10.128;2023-11-18T12:11:32;5.27;;;4.07;;
15706;SDS011;7953;54.302;10.128;2023-11-18T12:14:06;4.30;;;3.90;;
15706;SDS011;7953;54.302;10.128;2023-11-18T12:16:57;4.93;;;4.00;;
15706;SDS011;7953;54.302;10.128;2023-11-18T12:19:32;4.07;;;3.67;;
15706;SDS011;7953;54.302;10.128;2023-11-18T12:22:09;6.93;;;5.43;;
15706;SDS011;7953;54.302;10.128;2023-11-18T12:24:43;7.87;;;6.30;;
15706;SDS011;7953;54.302;10.128;2023-11-18T12:27:42;6.17;;;5.37;;
15706;SDS011;7953;54.302;10.128;2023-11-18T12:33:13;4.43;;;3.70;;
15706;SDS011;7953;54.302;10.128;2023-11-18T12:35:50;4.03;;;3.63;;
15706;SDS011;7953;54.302;10.128;2023-11-18T12:41:48;5.63;;;4.60;;
15706;SDS011;7953;54.302;10.128;2023-11-18T12:44:31;5.60;;;5.00;;
15706;SDS011;7953;54.302;10.128;2023-11-18T12:47:06;6.80;;;5.60;;
15706;SDS011;7953;54.302;10.128;2023-11-18T12:49:43;24.93;;;20.57;;
15706;SDS011;7953;54.302;10.128;2023-11-18T12:52:15;14.53;;;13.03;;
15706;SDS011;7953;54.302;10.128;2023-11-18T12:54:43;10.47;;;7.37;;
15706;SDS011;7953;54.302;10.128;2023-11-18T12:57:15;9.80;;;7.80;;
15706;SDS011;7953;54.302;10.128;2023-11-18T12:59:43;11.30;;;8.57;;
15706;SDS011;7953;54.302;10.128;2023-11-18T13:02:12;11.93;;;9.60;;
15706;SDS011;7953;54.302;10.128;2023-11-18T13:04:44;17.07;;;13.43;;
15706;SDS011;7953;54.302;10.128;2023-11-18T13:07:12;20.17;;;15.37;;
15706;SDS011;7953;54.302;10.128;2023-11-18T13:09:40;15.60;;;12.13;;
15706;SDS011;7953;54.302;10.128;2023-11-18T13:12:09;20.90;;;16.50;;
15706;SDS011;7953;54.302;10.128;2023-11-18T13:14:39;17.03;;;12.63;;
15706;SDS011;7953;54.302;10.128;2023-11-18T13:17:08;17.93;;;15.10;;
15706;SDS011;7953;54.302;10.128;2023-11-18T13:19:38;13.00;;;8.97;;
15706;SDS011;7953;54.302;10.128;2023-11-18T13:22:05;7.63;;;6.30;;
15706;SDS011;7953;54.302;10.128;2023-11-18T13:24:34;10.80;;;8.47;;
15706;SDS011;7953;54.302;10.128;2023-11-18T13:27:01;7.43;;;6.47;;
15706;SDS011;7953;54.302;10.128;2023-11-18T13:29:29;13.90;;;11.43;;
15706;SDS011;7953;54.302;10.128;2023-11-18T13:31:56;12.27;;;11.00;;
15706;SDS011;7953;54.302;10.128;2023-11-18T13:34:25;19.67;;;17.33;;
15706;SDS011;7953;54.302;10.128;2023-11-18T13:36:56;19.40;;;17.50;;
15706;SDS011;7953;54.302;10.128;2023-11-18T13:39:23;12.20;;;10.90;;
15706;SDS011;7953;54.302;10.128;2023-11-18T13:41:52;21.63;;;18.70;;
15706;SDS011;7953;54.302;10.128;2023-11-18T13:44:32;38.00;;;29.93;;
15706;SDS011;7953;54.302;10.128;2023-11-18T13:47:00;24.00;;;20.60;;
15706;SDS011;7953;54.302;10.128;2023-11-18T13:49:30;28.10;;;24.63;;
15706;SDS011;7953;54.302;10.128;2023-11-18T13:51:58;26.30;;;20.97;;
15706;SDS011;7953;54.302;10.128;2023-11-18T13:54:27;43.90;;;39.77;;
15706;SDS011;7953;54.302;10.128;2023-11-18T13:56:54;50.87;;;46.13;;
15706;SDS011;7953;54.302;10.128;2023-11-18T13:59:23;23.60;;;20.37;;
15706;SDS011;7953;54.302;10.128;2023-11-18T14:01:51;34.27;;;29.20;;
15706;SDS011;7953;54.302;10.128;2023-11-18T14:04:19;8.77;;;6.20;;
15706;SDS011;7953;54.302;10.128;2023-11-18T14:06:50;10.80;;;7.50;;
15706;SDS011;7953;54.302;10.128;2023-11-18T14:09:19;8.83;;;6.87;;
15706;SDS011;7953;54.302;10.128;2023-11-18T14:11:50;9.27;;;6.40;;
15706;SDS011;7953;54.302;10.128;2023-11-18T14:14:16;8.23;;;6.40;;
15706;SDS011;7953;54.302;10.128;2023-11-18T14:16:43;14.50;;;13.10;;
15706;SDS011;7953;54.302;10.128;2023-11-18T14:19:10;7.37;;;6.37;;
15706;SDS011;7953;54.302;10.128;2023-11-18T14:21:38;6.07;;;5.47;;
15706;SDS011;7953;54.302;10.128;2023-11-18T14:24:06;6.80;;;6.00;;
15706;SDS011;7953;54.302;10.128;2023-11-18T14:26:35;8.90;;;8.00;;
15706;SDS011;7953;54.302;10.128;2023-11-18T14:29:01;8.30;;;7.17;;
15706;SDS011;7953;54.302;10.128;2023-11-18T14:31:29;11.10;;;9.33;;
15706;SDS011;7953;54.302;10.128;2023-11-18T14:33:56;8.90;;;7.20;;
15706;SDS011;7953;54.302;10.128;2023-11-18T14:36:24;9.03;;;7.53;;
15706;SDS011;7953;54.302;10.128;2023-11-18T14:38:51;28.67;;;25.63;;
15706;SDS011;7953;54.302;10.128;2023-11-18T14:41:17;17.47;;;15.07;;
15706;SDS011;7953;54.302;10.128;2023-11-18T14:43:46;11.67;;;10.50;;
15706;SDS011;7953;54.302;10.128;2023-11-18T14:46:13;14.57;;;7.47;;
15706;SDS011;7953;54.302;10.128;2023-11-18T14:48:40;21.03;;;15.70;;
15706;SDS011;7953;54.302;10.128;2023-11-18T14:51:07;19.97;;;17.23;;
15706;SDS011;7953;54.302;10.128;2023-11-18T14:53:34;13.83;;;12.17;;
15706;SDS011;7953;54.302;10.128;2023-11-18T14:56:01;5.50;;;4.80;;
15706;SDS011;7953;54.302;10.128;2023-11-18T14:58:29;9.33;;;7.60;;